createdAt,value
2018-11-12T00:01:52.244Z,12.00
2018-11-12T00:04:19.779Z,12.00
2018-11-12T00:06:47.336Z,12.00
2018-11-12T00:09:14.948Z,12.00
2018-11-12T00:11:42.667Z,12.00
2018-11-12T00:14:10.296Z,12.00
2018-11-12T00:16:37.994Z,12.00
2018-11-12T00:19:05.588Z,12.00
2018-11-12T00:21:33.160Z,12.10
2018-11-12T00:24:00.696Z,12.10
2018-11-12T00:26:28.223Z,12.00
2018-11-12T00:28:55.805Z,12.10
2018-11-12T00:31:23.467Z,12.10
2018-11-12T00:33:51.016Z,12.10
2018-11-12T00:36:18.619Z,12.10
2018-11-12T00:38:46.315Z,12.10
2018-11-12T00:41:13.856Z,12.10
2018-11-12T00:43:41.392Z,12.10
2018-11-12T00:46:08.940Z,12.10
2018-11-12T00:48:36.539Z,12.10
2018-11-12T00:51:04.271Z,12.10
2018-11-12T00:53:31.836Z,12.10
2018-11-12T00:56:00.017Z,12.10
2018-11-12T00:58:27.679Z,12.10
2018-11-12T01:00:55.567Z,12.10
2018-11-12T01:03:23.072Z,12.00
2018-11-12T01:05:50.592Z,12.10
2018-11-12T01:08:18.176Z,12.10
2018-11-12T01:10:45.759Z,12.10
2018-11-12T01:13:13.404Z,12.10
2018-11-12T01:15:41.070Z,12.10
2018-11-12T01:18:08.654Z,12.10
2018-11-12T01:20:36.316Z,12.10
2018-11-12T01:23:03.831Z,12.10
2018-11-12T01:25:31.372Z,12.20
2018-11-12T01:27:58.890Z,12.10
2018-11-12T01:30:26.397Z,12.10
2018-11-12T01:32:54.013Z,12.20
2018-11-12T01:35:21.675Z,12.10
2018-11-12T01:37:49.327Z,12.20
2018-11-12T01:40:17.007Z,12.10
2018-11-12T01:42:45.005Z,12.10
2018-11-12T01:45:14.909Z,12.20
2018-11-12T01:47:43.708Z,12.20
2018-11-12T01:50:11.989Z,12.10
2018-11-12T01:52:39.711Z,12.10
2018-11-12T01:55:08.531Z,12.20
2018-11-12T01:57:36.210Z,12.10
2018-11-12T02:00:04.344Z,12.20
2018-11-12T02:02:31.915Z,12.20
2018-11-12T02:04:59.638Z,12.20
2018-11-12T02:07:27.011Z,12.20
2018-11-12T02:09:54.516Z,12.20
2018-11-12T02:12:22.034Z,12.20
2018-11-12T02:14:49.570Z,12.20
2018-11-12T02:17:17.167Z,12.20
2018-11-12T02:19:44.763Z,12.20
2018-11-12T02:22:12.363Z,12.30
2018-11-12T02:24:40.180Z,12.20
2018-11-12T02:27:07.783Z,12.30
2018-11-12T02:29:35.315Z,12.30
2018-11-12T02:32:02.881Z,12.20
2018-11-12T02:34:30.428Z,12.20
2018-11-12T02:36:58.020Z,12.20
2018-11-12T02:39:25.606Z,12.20
2018-11-12T02:41:53.240Z,12.30
2018-11-12T02:44:20.813Z,12.20
2018-11-12T02:46:48.399Z,12.20
2018-11-12T02:49:15.922Z,12.30
2018-11-12T02:51:43.594Z,12.20
2018-11-12T02:54:11.132Z,12.20
2018-11-12T02:56:38.741Z,12.20
2018-11-12T02:59:06.347Z,12.20
2018-11-12T03:01:33.924Z,12.20
2018-11-12T03:04:01.468Z,12.20
2018-11-12T03:06:28.975Z,12.20
2018-11-12T03:08:56.524Z,12.20
2018-11-12T03:11:24.050Z,12.20
2018-11-12T03:13:51.590Z,12.20
2018-11-12T03:16:19.152Z,12.20
2018-11-12T03:18:46.763Z,12.20
2018-11-12T03:21:14.446Z,12.20
2018-11-12T03:23:42.050Z,12.20
2018-11-12T03:26:09.672Z,12.10
2018-11-12T03:28:37.635Z,12.10
2018-11-12T03:31:05.178Z,12.10
2018-11-12T03:33:32.882Z,12.10
2018-11-12T03:36:00.443Z,12.00
2018-11-12T03:38:27.970Z,12.10
2018-11-12T03:40:55.544Z,12.10
2018-11-12T03:43:23.948Z,12.10
2018-11-12T03:45:51.569Z,12.10
2018-11-12T03:48:19.122Z,12.10
2018-11-12T03:50:46.680Z,12.10
2018-11-12T03:53:14.203Z,12.20
2018-11-12T03:55:41.809Z,12.20
2018-11-12T03:58:09.352Z,12.10
2018-11-12T04:00:36.835Z,12.20
2018-11-12T04:03:04.399Z,12.20
2018-11-12T04:05:31.959Z,12.20
2018-11-12T04:07:59.550Z,12.20
2018-11-12T04:10:27.078Z,12.20
2018-11-12T04:12:54.623Z,12.10
2018-11-12T04:15:23.412Z,12.20
2018-11-12T04:17:50.905Z,12.20
2018-11-12T04:20:19.661Z,12.20
2018-11-12T04:22:57.459Z,12.20
2018-11-12T04:25:25.189Z,12.20
2018-11-12T04:27:52.785Z,12.20
2018-11-12T04:30:20.351Z,12.20
2018-11-12T04:32:48.007Z,12.20
2018-11-12T04:35:15.652Z,12.20
2018-11-12T04:37:43.224Z,12.20
2018-11-12T04:40:13.350Z,12.20
2018-11-12T04:42:41.127Z,12.20
2018-11-12T04:45:10.405Z,12.30
2018-11-12T04:47:38.186Z,12.20
2018-11-12T04:50:08.076Z,12.20
2018-11-12T04:52:35.592Z,12.20
2018-11-12T04:55:03.162Z,12.20
2018-11-12T04:57:30.688Z,12.20
2018-11-12T04:59:58.268Z,12.20
2018-11-12T05:02:28.098Z,12.20
2018-11-12T05:04:55.726Z,12.30
2018-11-12T05:07:23.367Z,12.30
2018-11-12T05:09:50.920Z,12.30
2018-11-12T05:12:18.464Z,12.20
2018-11-12T05:14:45.980Z,12.20
2018-11-12T05:17:13.488Z,12.20
2018-11-12T05:19:41.017Z,12.20
2018-11-12T05:22:08.525Z,12.20
2018-11-12T05:24:36.128Z,12.20
2018-11-12T05:27:03.806Z,12.30
2018-11-12T05:29:31.449Z,12.30
2018-11-12T05:31:58.989Z,12.30
2018-11-12T05:34:26.527Z,12.30
2018-11-12T05:36:54.069Z,12.30
2018-11-12T05:39:21.650Z,12.30
2018-11-12T05:41:49.188Z,12.30
2018-11-12T05:44:16.787Z,12.30
2018-11-12T05:46:44.346Z,12.30
2018-11-12T05:49:11.949Z,12.30
2018-11-12T05:51:39.609Z,12.30
2018-11-12T05:54:07.108Z,12.30
2018-11-12T05:56:34.607Z,12.30
2018-11-12T05:59:02.544Z,12.30
2018-11-12T06:01:30.164Z,12.30
2018-11-12T06:03:57.747Z,12.30
2018-11-12T06:06:25.301Z,12.30
2018-11-12T06:08:52.915Z,12.30
2018-11-12T06:11:20.552Z,12.30
2018-11-12T06:13:48.108Z,12.30
2018-11-12T06:16:15.633Z,12.40
2018-11-12T06:18:43.154Z,12.30
2018-11-12T06:21:10.713Z,12.30
2018-11-12T06:23:38.328Z,12.30
2018-11-12T06:26:05.915Z,12.30
2018-11-12T06:28:33.508Z,12.30
2018-11-12T06:31:01.109Z,12.40
2018-11-12T06:33:28.672Z,12.40
2018-11-12T06:35:56.212Z,12.30
2018-11-12T06:38:23.824Z,12.30
2018-11-12T06:40:51.371Z,12.40
2018-11-12T06:43:19.747Z,12.40
2018-11-12T06:45:47.216Z,12.40
2018-11-12T06:48:14.725Z,12.40
2018-11-12T06:50:42.305Z,12.40
2018-11-12T06:53:09.913Z,12.40
2018-11-12T06:55:37.405Z,12.40
2018-11-12T06:58:04.946Z,12.50
2018-11-12T07:00:33.788Z,12.40
2018-11-12T07:03:01.368Z,12.40
2018-11-12T07:05:29.504Z,12.50
2018-11-12T07:07:57.020Z,12.50
2018-11-12T07:10:25.740Z,12.60
2018-11-12T07:12:53.928Z,12.60
2018-11-12T07:15:22.605Z,12.60
2018-11-12T07:17:50.183Z,12.50
2018-11-12T07:20:19.431Z,12.50
2018-11-12T07:22:47.205Z,12.50
2018-11-12T07:25:15.958Z,12.50
2018-11-12T07:27:43.426Z,12.50
2018-11-12T07:30:13.376Z,12.50
2018-11-12T07:32:40.919Z,12.50
2018-11-12T07:35:10.116Z,12.40
2018-11-12T07:37:37.647Z,12.50
2018-11-12T07:40:06.660Z,12.50
2018-11-12T07:42:34.167Z,12.50
2018-11-12T07:45:01.718Z,12.50
2018-11-12T07:47:29.281Z,12.50
2018-11-12T07:49:56.821Z,12.50
2018-11-12T07:52:24.530Z,12.50
2018-11-12T07:54:52.062Z,12.50
2018-11-12T07:57:19.592Z,12.50
2018-11-12T07:59:47.130Z,12.50
2018-11-12T08:02:14.727Z,12.50
2018-11-12T08:04:42.243Z,12.50
2018-11-12T08:07:09.759Z,12.50
2018-11-12T08:09:37.311Z,12.50
2018-11-12T08:12:05.013Z,12.50
2018-11-12T08:14:32.647Z,12.50
2018-11-12T08:17:00.088Z,12.50
2018-11-12T08:19:27.672Z,12.80
2018-11-12T08:21:55.233Z,12.50
2018-11-12T08:24:22.866Z,12.50
2018-11-12T08:26:50.251Z,12.50
2018-11-12T08:29:17.799Z,12.50
2018-11-12T08:31:45.316Z,12.50
2018-11-12T08:34:12.907Z,12.60
2018-11-12T08:36:40.610Z,12.50
2018-11-12T08:39:08.104Z,12.60
2018-11-12T08:41:35.713Z,12.60
2018-11-12T08:44:03.593Z,12.60
2018-11-12T08:46:31.215Z,12.60
2018-11-12T08:48:58.900Z,12.60
2018-11-12T08:51:26.405Z,12.60
2018-11-12T08:53:53.961Z,12.60
2018-11-12T08:56:21.517Z,12.60
2018-11-12T08:58:49.067Z,12.70
2018-11-12T09:01:17.105Z,12.70
2018-11-12T09:03:44.749Z,12.70
2018-11-12T09:06:12.436Z,12.70
2018-11-12T09:08:40.052Z,12.70
2018-11-12T09:11:07.624Z,12.70
2018-11-12T09:13:35.370Z,12.70
2018-11-12T09:16:02.921Z,12.80
2018-11-12T09:18:30.715Z,12.80
2018-11-12T09:20:59.387Z,12.90
2018-11-12T09:23:26.982Z,12.90
2018-11-12T09:25:54.539Z,12.90
2018-11-12T09:28:24.390Z,12.90
2018-11-12T09:30:53.392Z,12.90
2018-11-12T09:33:19.564Z,12.90
2018-11-12T09:35:47.786Z,12.90
2018-11-12T09:38:15.323Z,13.00
2018-11-12T09:40:43.005Z,12.90
2018-11-12T09:43:10.655Z,13.00
2018-11-12T09:45:38.240Z,13.70
2018-11-12T09:48:05.803Z,13.00
2018-11-12T09:50:33.324Z,12.90
2018-11-12T09:53:01.535Z,13.00
2018-11-12T09:55:30.317Z,12.90
2018-11-12T09:57:59.264Z,12.90
2018-11-12T10:00:27.019Z,12.90
2018-11-12T10:02:55.084Z,12.90
2018-11-12T10:05:23.416Z,13.00
2018-11-12T10:07:55.164Z,13.00
2018-11-12T10:10:26.204Z,13.00
2018-11-12T10:12:53.407Z,13.00
2018-11-12T10:15:22.190Z,13.00
2018-11-12T10:17:50.056Z,13.10
2018-11-12T10:20:14.469Z,13.00
2018-11-12T10:22:41.985Z,13.10
2018-11-12T10:25:09.540Z,13.00
2018-11-12T10:27:37.109Z,13.00
2018-11-12T10:30:05.500Z,13.10
2018-11-12T10:32:33.056Z,13.00
2018-11-12T10:35:00.572Z,13.10
2018-11-12T10:37:28.136Z,13.00
2018-11-12T10:39:55.744Z,13.10
2018-11-12T10:42:23.341Z,13.20
2018-11-12T10:44:50.885Z,13.10
2018-11-12T10:47:18.547Z,13.10
2018-11-12T10:49:46.136Z,13.20
2018-11-12T10:52:13.696Z,13.20
2018-11-12T10:54:41.342Z,13.10
2018-11-12T10:57:08.759Z,13.20
2018-11-12T10:59:36.266Z,13.20
2018-11-12T11:02:09.578Z,13.20
2018-11-12T11:04:38.224Z,13.20
2018-11-12T11:07:05.759Z,13.20
2018-11-12T11:09:33.271Z,13.20
2018-11-12T11:12:00.842Z,13.20
2018-11-12T11:14:28.489Z,13.20
2018-11-12T11:16:56.117Z,13.20
2018-11-12T11:19:23.847Z,13.20
2018-11-12T11:21:51.347Z,13.20
2018-11-12T11:24:18.899Z,13.20
2018-11-12T11:26:46.451Z,13.20
2018-11-12T11:29:13.965Z,13.20
2018-11-12T11:31:41.835Z,13.20
2018-11-12T11:34:09.382Z,13.20
2018-11-12T11:36:36.929Z,13.20
2018-11-12T11:39:06.670Z,13.20
2018-11-12T11:41:34.219Z,13.20
2018-11-12T11:44:01.811Z,13.20
2018-11-12T11:46:29.300Z,13.20
2018-11-12T11:48:57.017Z,13.20
2018-11-12T11:51:24.548Z,13.20
2018-11-12T11:53:52.075Z,14.10
2018-11-12T11:56:19.765Z,13.10
2018-11-12T11:58:47.251Z,13.10
2018-11-12T12:01:14.756Z,13.10
2018-11-12T12:03:42.332Z,13.10
2018-11-12T12:06:10.877Z,13.20
2018-11-12T12:08:38.768Z,13.20
2018-11-12T12:11:06.309Z,13.20
2018-11-12T12:13:34.011Z,13.40
2018-11-12T12:16:01.960Z,13.40
2018-11-12T12:18:29.611Z,13.40
2018-11-12T12:20:57.152Z,13.40
2018-11-12T12:23:24.648Z,13.40
2018-11-12T12:25:52.294Z,13.40
2018-11-12T12:28:19.727Z,13.40
2018-11-12T12:30:47.308Z,13.50
2018-11-12T12:33:14.950Z,13.50
2018-11-12T12:35:42.576Z,13.50
2018-11-12T12:38:10.032Z,13.60
2018-11-12T12:40:37.750Z,13.60
2018-11-12T12:43:05.627Z,13.10
2018-11-12T12:45:33.295Z,13.50
2018-11-12T12:48:00.867Z,13.50
2018-11-12T12:50:28.466Z,13.60
2018-11-12T12:52:56.110Z,13.60
2018-11-12T12:55:23.695Z,13.60
2018-11-12T12:57:51.320Z,13.60
2018-11-12T13:00:20.355Z,13.20
2018-11-12T13:02:47.965Z,13.60
2018-11-12T13:05:15.526Z,13.70
2018-11-12T13:07:43.285Z,13.70
2018-11-12T13:10:12.618Z,13.60
2018-11-12T13:12:40.273Z,13.70
2018-11-12T13:15:09.815Z,13.60
2018-11-12T13:17:37.438Z,13.60
2018-11-12T13:20:06.284Z,13.60
2018-11-12T13:22:33.929Z,13.60
2018-11-12T13:25:01.612Z,13.80
2018-11-12T13:27:29.358Z,13.60
2018-11-12T13:29:57.063Z,13.60
2018-11-12T13:32:25.253Z,13.60
2018-11-12T13:34:52.897Z,13.60
2018-11-12T13:37:20.409Z,13.50
2018-11-12T13:39:48.178Z,13.50
2018-11-12T13:42:15.700Z,13.50
2018-11-12T13:44:43.290Z,13.60
2018-11-12T13:47:10.979Z,13.50
2018-11-12T13:49:38.588Z,13.50
2018-11-12T13:52:06.457Z,13.40
2018-11-12T13:54:34.109Z,13.40
2018-11-12T13:57:01.645Z,13.40
2018-11-12T13:59:29.205Z,13.40
2018-11-12T14:01:56.717Z,13.40
2018-11-12T14:04:24.240Z,13.40
2018-11-12T14:06:51.839Z,13.40
2018-11-12T14:09:20.089Z,13.40
2018-11-12T14:11:47.625Z,13.50
2018-11-12T14:14:15.220Z,13.40
2018-11-12T14:16:42.757Z,13.40
2018-11-12T14:19:10.328Z,13.40
2018-11-12T14:21:38.002Z,13.40
2018-11-12T14:24:05.443Z,13.40
2018-11-12T14:26:33.087Z,13.30
2018-11-12T14:29:00.770Z,13.30
2018-11-12T14:31:28.678Z,13.30
2018-11-12T14:33:56.415Z,13.40
2018-11-12T14:36:23.972Z,13.30
2018-11-12T14:38:52.238Z,13.30
2018-11-12T14:41:20.005Z,13.40
2018-11-12T14:43:47.622Z,13.40
2018-11-12T14:46:15.249Z,13.40
2018-11-12T14:48:43.405Z,13.30
2018-11-12T14:51:11.159Z,13.30
2018-11-12T14:53:38.770Z,13.30
2018-11-12T14:56:06.584Z,13.40
2018-11-12T14:58:34.175Z,13.40
2018-11-12T15:01:01.701Z,13.30
2018-11-12T15:03:29.281Z,13.40
2018-11-12T15:05:56.939Z,13.30
2018-11-12T15:08:24.572Z,13.30
2018-11-12T15:10:52.104Z,13.30
2018-11-12T15:13:19.727Z,13.30
2018-11-12T15:15:47.288Z,13.30
2018-11-12T15:18:14.861Z,13.30
2018-11-12T15:20:42.434Z,13.30
2018-11-12T15:23:10.287Z,13.30
2018-11-12T15:25:37.972Z,13.30
2018-11-12T15:28:05.690Z,13.30
2018-11-12T15:30:33.443Z,13.20
2018-11-12T15:33:01.003Z,13.20
2018-11-12T15:35:28.610Z,13.20
2018-11-12T15:37:56.212Z,13.20
2018-11-12T15:40:24.018Z,13.20
2018-11-12T15:42:51.715Z,13.10
2018-11-12T15:45:21.502Z,13.10
2018-11-12T15:47:49.323Z,13.10
2018-11-12T15:50:20.781Z,13.10
2018-11-12T15:52:48.344Z,13.10
2018-11-12T15:55:15.951Z,13.10
2018-11-12T15:57:43.779Z,13.10
2018-11-12T16:00:13.393Z,13.10
2018-11-12T16:02:40.981Z,13.00
2018-11-12T16:05:09.443Z,13.00
2018-11-12T16:07:37.032Z,13.00
2018-11-12T16:10:07.073Z,13.00
2018-11-12T16:12:34.594Z,13.00
2018-11-12T16:15:02.132Z,13.00
2018-11-12T16:17:29.760Z,13.00
2018-11-12T16:19:57.424Z,12.90
2018-11-12T16:22:25.052Z,12.90
2018-11-12T16:24:52.641Z,12.90
2018-11-12T16:27:20.214Z,12.90
2018-11-12T16:29:47.809Z,12.90
2018-11-12T16:32:15.392Z,12.90
2018-11-12T16:34:43.040Z,12.90
2018-11-12T16:37:10.707Z,12.90
2018-11-12T16:39:38.324Z,12.90
2018-11-12T16:42:05.832Z,12.90
2018-11-12T16:44:33.404Z,12.80
2018-11-12T16:47:00.963Z,12.80
2018-11-12T16:49:28.553Z,12.80
2018-11-12T16:51:56.187Z,12.70
2018-11-12T16:54:23.725Z,12.70
2018-11-12T16:56:51.244Z,12.70
2018-11-12T16:59:18.803Z,12.60
2018-11-12T17:01:46.451Z,12.60
2018-11-12T17:04:14.236Z,12.70
2018-11-12T17:06:41.748Z,12.70
2018-11-12T17:09:10.956Z,12.60
2018-11-12T17:11:38.498Z,12.60
2018-11-12T17:14:06.902Z,12.60
2018-11-12T17:16:34.476Z,12.60
2018-11-12T17:19:01.992Z,12.60
2018-11-12T17:21:29.533Z,12.60
2018-11-12T17:23:57.139Z,12.60
2018-11-12T17:26:25.287Z,12.60
2018-11-12T17:28:52.932Z,12.50
2018-11-12T17:31:20.716Z,12.50
2018-11-12T17:33:48.275Z,12.50
2018-11-12T17:36:15.849Z,12.50
2018-11-12T17:38:43.486Z,12.50
2018-11-12T17:41:11.060Z,12.50
2018-11-12T17:43:38.631Z,12.40
2018-11-12T17:46:06.248Z,12.40
2018-11-12T17:48:33.841Z,12.40
2018-11-12T17:51:01.455Z,12.40
2018-11-12T17:53:29.018Z,12.40
2018-11-12T17:55:56.563Z,12.40
2018-11-12T17:58:24.094Z,12.40
2018-11-12T18:00:51.648Z,12.40
2018-11-12T18:03:19.373Z,12.40
2018-11-12T18:05:47.064Z,12.30
2018-11-12T18:08:14.925Z,12.40
2018-11-12T18:10:42.509Z,12.30
2018-11-12T18:13:10.092Z,12.30
2018-11-12T18:15:37.636Z,12.30
2018-11-12T18:18:05.743Z,12.30
2018-11-12T18:20:33.303Z,12.30
2018-11-12T18:23:01.069Z,12.20
2018-11-12T18:25:28.555Z,12.20
2018-11-12T18:27:56.618Z,12.20
2018-11-12T18:30:25.803Z,12.20
2018-11-12T18:32:54.200Z,12.20
2018-11-12T18:35:21.772Z,12.20
2018-11-12T18:37:49.355Z,12.20
2018-11-12T18:40:18.522Z,12.20
2018-11-12T18:42:46.387Z,12.30
2018-11-12T18:45:19.727Z,12.20
2018-11-12T18:47:47.241Z,12.20
2018-11-12T18:50:17.248Z,12.20
2018-11-12T18:52:45.381Z,12.20
2018-11-12T18:55:12.832Z,12.20
2018-11-12T18:57:40.916Z,12.20
2018-11-12T19:00:10.008Z,12.20
2018-11-12T19:02:37.816Z,12.20
2018-11-12T19:05:08.331Z,12.10
2018-11-12T19:07:35.935Z,12.20
2018-11-12T19:10:03.831Z,12.20
2018-11-12T19:12:31.364Z,12.20
2018-11-12T19:14:58.890Z,12.20
2018-11-12T19:17:26.448Z,12.20
2018-11-12T19:19:54.452Z,12.20
2018-11-12T19:22:22.056Z,12.20
2018-11-12T19:24:49.698Z,12.10
2018-11-12T19:27:17.329Z,12.10
2018-11-12T19:29:44.825Z,12.10
2018-11-12T19:32:12.335Z,12.10
2018-11-12T19:34:39.884Z,12.00
2018-11-12T19:37:07.411Z,12.00
2018-11-12T19:39:34.983Z,12.00
2018-11-12T19:42:02.552Z,12.00
2018-11-12T19:44:30.163Z,12.00
2018-11-12T19:46:57.800Z,12.00
2018-11-12T19:49:25.301Z,12.00
2018-11-12T19:51:52.982Z,12.00
2018-11-12T19:54:20.419Z,12.00
2018-11-12T19:56:47.953Z,12.00
2018-11-12T19:59:15.562Z,11.90
2018-11-12T20:01:43.227Z,12.00
2018-11-12T20:04:10.859Z,11.90
2018-11-12T20:06:38.455Z,11.90
2018-11-12T20:09:07.746Z,11.90
2018-11-12T20:11:35.331Z,11.90
2018-11-12T20:14:02.857Z,11.90
2018-11-12T20:16:30.381Z,11.90
2018-11-12T20:18:57.925Z,11.90
2018-11-12T20:21:25.471Z,11.90
2018-11-12T20:23:53.064Z,11.90
2018-11-12T20:26:20.684Z,11.90
2018-11-12T20:28:48.201Z,11.80
2018-11-12T20:31:15.731Z,11.80
2018-11-12T20:33:43.269Z,11.90
2018-11-12T20:36:10.800Z,11.80
2018-11-12T20:38:38.444Z,11.80
2018-11-12T20:41:05.960Z,11.80
2018-11-12T20:43:33.539Z,11.80
2018-11-12T20:46:01.137Z,11.80
2018-11-12T20:48:28.663Z,11.80
2018-11-12T20:50:56.171Z,11.80
2018-11-12T20:53:23.738Z,11.80
2018-11-12T20:55:51.478Z,11.80
2018-11-12T20:58:19.137Z,11.80
2018-11-12T21:00:46.944Z,11.80
2018-11-12T21:03:14.578Z,11.80
2018-11-12T21:05:42.119Z,11.70
2018-11-12T21:08:09.884Z,11.80
2018-11-12T21:10:37.417Z,11.70
2018-11-12T21:13:04.944Z,11.80
2018-11-12T21:15:32.577Z,11.80
2018-11-12T21:18:00.216Z,11.80
2018-11-12T21:20:27.812Z,11.70
2018-11-12T21:22:55.984Z,11.70
2018-11-12T21:25:24.743Z,11.70
2018-11-12T21:27:52.335Z,11.70
2018-11-12T21:30:21.237Z,11.60
2018-11-12T21:32:48.863Z,11.70
2018-11-12T21:35:16.481Z,11.60
2018-11-12T21:37:44.189Z,11.70
2018-11-12T21:40:14.203Z,11.60
2018-11-12T21:42:42.172Z,11.60
2018-11-12T21:45:11.167Z,11.60
2018-11-12T21:47:39.772Z,11.60
2018-11-12T21:50:09.093Z,11.60
2018-11-12T21:52:36.940Z,11.50
2018-11-12T21:55:04.969Z,11.60
2018-11-12T21:57:32.565Z,11.60
2018-11-12T22:00:00.504Z,11.50
2018-11-12T22:02:28.474Z,11.50
2018-11-12T22:04:56.063Z,11.50
2018-11-12T22:07:23.588Z,11.50
2018-11-12T22:09:51.119Z,11.50
2018-11-12T22:12:18.664Z,11.50
2018-11-12T22:14:46.251Z,11.60
2018-11-12T22:17:13.933Z,10.90
2018-11-12T22:19:41.863Z,11.50
2018-11-12T22:22:09.251Z,11.50
2018-11-12T22:24:36.773Z,11.50
2018-11-12T22:27:04.600Z,11.50
2018-11-12T22:29:32.131Z,11.60
2018-11-12T22:31:59.651Z,11.50
2018-11-12T22:34:27.267Z,11.60
2018-11-12T22:36:54.856Z,11.60
2018-11-12T22:39:22.482Z,11.50
2018-11-12T22:41:49.984Z,11.50
2018-11-12T22:44:17.508Z,11.60
2018-11-12T22:46:45.101Z,11.50
2018-11-12T22:49:12.633Z,11.50
2018-11-12T22:51:40.261Z,11.50
2018-11-12T22:54:07.911Z,11.50
2018-11-12T22:56:35.296Z,11.50
2018-11-12T22:59:02.868Z,11.50
2018-11-12T23:01:30.371Z,11.50
2018-11-12T23:03:57.973Z,11.50
2018-11-12T23:06:25.509Z,11.50
2018-11-12T23:08:53.061Z,11.50
2018-11-12T23:11:20.600Z,11.50
2018-11-12T23:13:48.116Z,11.50
2018-11-12T23:16:15.639Z,11.50
2018-11-12T23:18:43.371Z,11.50
2018-11-12T23:21:10.889Z,11.50
2018-11-12T23:23:38.411Z,11.50
2018-11-12T23:26:05.915Z,11.50
2018-11-12T23:28:33.528Z,11.50
2018-11-12T23:31:01.092Z,11.50
2018-11-12T23:33:28.660Z,11.50
2018-11-12T23:35:56.216Z,11.50
2018-11-12T23:38:23.720Z,11.50
2018-11-12T23:40:51.270Z,11.50
2018-11-12T23:43:18.971Z,11.50
2018-11-12T23:45:46.500Z,11.50
2018-11-12T23:48:14.015Z,11.50
2018-11-12T23:50:41.524Z,11.50
2018-11-12T23:53:09.080Z,11.50
2018-11-12T23:55:36.609Z,11.50
2018-11-12T23:58:04.277Z,11.40
